METAR Data
IDs: Format: Raw Decoded Include TAF

Data at: 0903 UTC 09 Apr 2020

KEDW 090858Z AUTO 00000KT 10SM CLR 06/06 A3004 RMK AO2 DZE0757RAB0757E18 SLP176 P0000 60001 T00620061 50003

TAF AMD KEDW 082225Z 0822/1003 25012G18KT 9000 -SHRA SCT035 BKN050 610505 510009 QNH2990INS
  BECMG 0822/0823 25012G18KT 8000 -SHRA SCT035 OVC050 610506 510009 QNH2992INS
  BECMG 0907/0908 VRB06KT 9000 -SHRA SCT020 OVC030 610606 QNH2992INS
  BECMG 0914/0915 21010G15KT 9999 NSW SCT035 SCT060 BKN120 610606 QNH3002INS
  BECMG 0920/0921 32010G15KT 9000 -SHRA SCT040 BKN060 BKN120 QNH3005INS TX09/0822Z TN03/0913Z LAST NO AMDS AFT 0822 NEXT 0913


K9L2 090858Z AUTO 14003KT 10SM -RA FEW060 M A3005 RMK AO2 RAE41RAB55 SLPNO P0000 60000 53001 FZRANO $
No TAF found for K9L2

KFAT 090853Z 11010KT 3SM -RA BR BKN007 OVC100 10/08 A3002 RMK AO2 SFC VIS 5 SLP164 P0003 60010 T01000083 51006

KFAT 090527Z 0906/1006 12005KT P6SM SCT010 OVC025
  FM090800 12004KT P6SM OVC010
  FM091200 13005KT 6SM -RA BR BKN030 OVC050
  FM091600 13014G20KT 6SM -RA BR OVC050
  FM091900 VRB04KT P6SM -RA BKN020 OVC050


KLSV 090858Z 13007KT 10SM CLR 11/02 A3003 RMK AO2A SLP159 T01070018 51005 $

TAF KLSV 090700Z 0907/1013 15010KT 9999 SCT080 BKN120 QNH3002INS
  BECMG 0914/0915 11006KT 9999 SCT060 BKN090 620809 QNH3006INS
  BECMG 0919/0920 17010G20KT 9999 VCSH SCT040 BKN080 620809 510009 QNH3009INS
  BECMG 1004/1005 20008KT 9999 NSW SCT080 BKN110 620809 QNH3012INS TX19/0922Z TN10/0913Z


KNID 090856Z AUTO 08004KT 10SM FEW035 SCT060 OVC075 06/04 A3006 RMK AO2 SLP188 60000 T00610044 50000 $

TAF AMD KNID 0900/0923 VRB05KT 9999 FEW010 SCT020 BKN040 OVC080 640409 641305 540109 541009 QNH2994NS
  TEMPO 0900/0903 VRB05KT 8000 -RA BR SCT015 BKN020 OVC040
  BECMG 0902/0903 14008G16KT 9999 FEW025 SCT040 VC100 640409 641305 540109 541009 QNH2992INS WND 120V220
  TEMPO 0903/0908 VRB05KT 8000 -RA BR FEW015 BKN025 OVC040
  BECMG 0908/0911 12008KT 6000 -RA BR SCT015 OVC025 640309 641206 540109 541009 QNH2990INS
  TEMPO 0911/0917 VRB05KT 4000 RA BR BKN015 OVC025
  BECMG 0917/0919 04008KT 9999 FEW025 SCT040 OVC100 640409 641305 540109 541009 QNH2995INS
  TEMPO 0917/0923 04010G20KT 9999 SCT025 OVC040 T03/0914Z T11/0922Z LAST NO AMD AFT 0801/ NEXT 0815 AMD 0044


KNLC 090901Z AUTO 15020KT 3SM -RA BR SCT005 BKN022 OVC027 09/08 A3001 RMK AO2 P0001 T00940083 $

TAF AMD KNLC 0908/1007 14018G28KT 9999 VCSH FEW035 BKN050 650809 651703 541009 551909 532809 QNH2994INS
  TEMPO 0909/0915 18009KT 3200 RA BR BKN005 BKN030
  FM091500 VRB06KT 9999 VCSH SCT035 BKN065 BKN090 650809 651703 541009 551909 532809 QNH2995INS
  FM092000 17009KT 9999 SCT045 BKN060 BKN080 600000 531809 532709 533603 QNH2993INS T08/0913Z T16/0923Z AMD 0830 FS30162


KNTD 090901Z AUTO 05004KT 10SM FEW026 BKN080 OVC100 11/09 A3009 RMK AO2 T01110089 $

TAF KNTD 0907/1007 VRB06KT 9999 VCSH BKN030 BKN080 BKN120 OVC220 640409 641305 QNH3002INS
  TEMPO 0907/0913 8000 -SHRA BKN025 OVC050
  FM091300 18012KT 4800 -RA BR BKN015 OVC050 640409 641305 QNH2999INS AUTOMATED SENSOR METWATCH 0907 TIL 0913 T09/0912Z T15/0921Z FS30128


KPMD 090853Z AUTO 23004KT 10SM -RA OVC034 06/03 A3005 RMK AO2 RAB17 SLP174 P0000 60000 T00610028 50000

KPMD 090536Z 0906/1006 21010KT P6SM VCSH OVC050
  FM091800 08006KT 4SM -RA BR BKN025
  FM092300 11008KT 4SM -RA BR OVC050
  FM100400 20008KT P6SM -SHRA OVC050


KRIV 090858Z AUTO 11003KT 10SM BKN029 OVC036 08/06 A3009 RMK AO2 RAE08DZB08E10RAB32E44 SLP191 P0000 60002 T00750058 56004

TAF KRIV 090413Z 0904/1010 16009KT 9999 VCSH SCT020 BKN030 OVC060 620405 QNH3005INS
  TEMPO 0904/0910 -SHRA SCT020 OVC030
  BECMG 0911/0912 15009KT 9999 -SHRA SCT015 BKN025 OVC040 620409 QNH3008INS
  TEMPO 0912/0915 8000 -SHRA BR SCT008 BKN015 OVC025
  BECMG 0914/0915 13009KT 8000 -RA BR SCT005 OVC015 620409 621305 540509 QNH3010INS
  BECMG 0917/0918 13009KT 8000 -RA BR SCT003 OVC010 620409 621305 540509 QNH3006INS
  TEMPO 0918/0921 13010G15KT 6000 RA BR OVC007
  BECMG 0920/0921 13010KT 6000 -RA BR FEW005 OVC015 620409 621305 540509 QNH3003INS WND 100V210
  TEMPO 0921/1003 16012G18KT 4800 RA BR SCT005 OVC010
  BECMG 1004/1005 15009KT 4800 -RA BR SCT007 OVC010 620409 621305 540509 QNH3006INS TX11/0921Z TN06/0913Z


KWJF 090856Z AUTO 30006KT 10SM -RA OVC035 06/04 A3007 RMK AO2 SLP188 P0002 60004 T00560039 53003

KWJF 090737Z 0908/1006 21008KT P6SM VCSH BKN035 OVC050
  FM091800 08006KT 4SM -RA BR BKN025
  FM092300 08010KT 4SM -RA BR OVC050
  FM100400 23008KT P6SM -SHRA OVC050